createdAt,value
2018-03-11T00:02:26.139Z,11.00
2018-03-11T00:04:53.855Z,8.47
2018-03-11T00:07:21.530Z,10.17
2018-03-11T00:09:49.179Z,10.30
2018-03-11T00:12:16.891Z,8.83
2018-03-11T00:14:44.790Z,10.00
2018-03-11T00:17:12.447Z,10.07
2018-03-11T00:19:40.106Z,9.43
2018-03-11T00:22:07.902Z,9.60
2018-03-11T00:24:43.690Z,10.43
2018-03-11T00:27:11.397Z,8.63
2018-03-11T00:29:39.054Z,10.10
2018-03-11T00:32:06.741Z,9.40
2018-03-11T00:34:34.389Z,10.17
2018-03-11T00:37:02.069Z,9.13
2018-03-11T00:39:29.793Z,10.17
2018-03-11T00:41:57.421Z,10.33
2018-03-11T00:44:25.077Z,9.23
2018-03-11T00:47:05.828Z,9.33
2018-03-11T00:49:33.475Z,8.30
2018-03-11T00:52:01.150Z,8.43
2018-03-11T00:54:28.837Z,9.07
2018-03-11T00:56:56.494Z,10.90
2018-03-11T00:59:24.136Z,10.33
2018-03-11T01:01:51.834Z,10.87
2018-03-11T01:04:19.409Z,10.63
2018-03-11T01:06:47.903Z,10.37
2018-03-11T01:09:16.352Z,11.30
2018-03-11T01:11:44.006Z,10.20
2018-03-11T01:14:11.668Z,10.60
2018-03-11T01:19:33.590Z,9.67
2018-03-11T01:22:01.299Z,10.37
2018-03-11T01:24:28.978Z,9.03
2018-03-11T01:27:10.620Z,8.90
2018-03-11T01:29:38.318Z,10.13
2018-03-11T01:32:05.977Z,9.00
2018-03-11T01:34:33.719Z,11.03
2018-03-11T01:37:01.376Z,10.47
2018-03-11T01:39:29.037Z,10.13
2018-03-11T01:41:56.659Z,9.73
2018-03-11T01:44:25.076Z,9.23
2018-03-11T01:46:52.908Z,9.70
2018-03-11T01:49:20.593Z,9.03
2018-03-11T01:51:48.305Z,9.90
2018-03-11T01:54:16.030Z,8.67
2018-03-11T01:56:44.770Z,9.77
2018-03-11T01:59:13.129Z,8.90
2018-03-11T02:01:41.999Z,8.60
2018-03-11T02:04:10.972Z,9.23
2018-03-11T02:06:39.468Z,8.00
2018-03-11T02:09:07.168Z,9.40
2018-03-11T02:11:35.725Z,9.50
2018-03-11T02:14:03.479Z,9.43
2018-03-11T02:16:32.089Z,8.30
2018-03-11T02:18:59.657Z,9.43
2018-03-11T02:21:27.233Z,8.37
2018-03-11T02:23:54.899Z,9.20
2018-03-11T02:26:22.632Z,9.40
2018-03-11T02:28:50.310Z,10.10
2018-03-11T02:31:19.257Z,9.57
2018-03-11T02:33:46.991Z,9.30
2018-03-11T02:36:14.747Z,10.67
2018-03-11T02:38:42.502Z,9.47
2018-03-11T02:41:10.309Z,9.17
2018-03-11T02:46:11.130Z,10.50
2018-03-11T02:48:39.680Z,10.33
2018-03-11T02:51:08.193Z,11.80
2018-03-11T02:53:35.877Z,10.63
2018-03-11T02:56:03.605Z,11.80
2018-03-11T02:58:32.363Z,12.00
2018-03-11T03:01:00.054Z,12.40
2018-03-11T03:03:27.806Z,11.60
2018-03-11T03:05:59.793Z,11.63
2018-03-11T03:08:50.752Z,13.97
2018-03-11T03:11:18.466Z,11.80
2018-03-11T03:13:46.875Z,11.63
2018-03-11T03:16:15.312Z,11.63
2018-03-11T03:18:43.297Z,12.47
2018-03-11T03:21:11.026Z,11.70
2018-03-11T03:23:44.588Z,11.67
2018-03-11T03:26:12.982Z,12.87
2018-03-11T03:28:40.743Z,11.80
2018-03-11T03:31:09.238Z,11.87
2018-03-11T03:33:36.935Z,11.83
2018-03-11T03:36:04.608Z,11.03
2018-03-11T03:38:32.396Z,12.57
2018-03-11T03:41:00.168Z,11.13
2018-03-11T03:43:29.329Z,12.80
2018-03-11T03:46:01.849Z,12.83
2018-03-11T03:48:29.790Z,13.03
2018-03-11T03:50:57.601Z,11.53
2018-03-11T03:53:26.386Z,11.07
2018-03-11T03:55:54.062Z,12.93
2018-03-11T03:58:21.740Z,13.33
2018-03-11T04:00:50.295Z,13.07
2018-03-11T04:03:17.986Z,12.93
2018-03-11T04:05:53.751Z,13.30
2018-03-11T04:08:22.120Z,13.20
2018-03-11T04:10:57.516Z,13.33
2018-03-11T04:13:25.093Z,13.13
2018-03-11T04:15:52.693Z,12.80
2018-03-11T04:18:20.270Z,11.90
2018-03-11T04:20:48.934Z,11.27
2018-03-11T04:23:17.782Z,12.47
2018-03-11T04:25:53.910Z,15.73
2018-03-11T04:28:21.516Z,14.40
2018-03-11T04:30:49.860Z,14.50
2018-03-11T04:33:17.529Z,13.73
2018-03-11T04:35:45.201Z,14.30
2018-03-11T04:38:12.883Z,14.93
2018-03-11T04:40:41.345Z,13.80
2018-03-11T04:43:09.011Z,16.40
2018-03-11T04:45:36.713Z,14.70
2018-03-11T04:48:04.387Z,15.03
2018-03-11T04:50:32.045Z,15.43
2018-03-11T04:52:59.793Z,17.23
2018-03-11T04:55:29.356Z,15.20
2018-03-11T04:57:57.044Z,15.40
2018-03-11T05:00:24.723Z,17.53
2018-03-11T05:02:52.381Z,18.10
2018-03-11T05:05:20.050Z,16.73
2018-03-11T05:07:48.497Z,15.80
2018-03-11T05:10:16.193Z,15.87
2018-03-11T05:12:44.672Z,14.93
2018-03-11T05:15:26.023Z,18.77
2018-03-11T05:17:53.764Z,17.03
2018-03-11T05:20:21.473Z,14.90
2018-03-11T05:22:49.133Z,16.80
2018-03-11T05:25:16.827Z,17.00
2018-03-11T05:27:44.516Z,17.57
2018-03-11T05:30:12.199Z,14.97
2018-03-11T05:32:39.891Z,21.30
2018-03-11T05:35:07.591Z,17.50
2018-03-11T05:37:35.284Z,17.10
2018-03-11T05:40:03.000Z,18.00
2018-03-11T05:42:30.657Z,17.23
2018-03-11T05:45:18.732Z,17.70
2018-03-11T05:47:46.404Z,20.90
2018-03-11T05:50:14.068Z,21.50
2018-03-11T05:52:41.734Z,19.90
2018-03-11T05:55:09.466Z,27.47
2018-03-11T05:57:37.950Z,23.60
2018-03-11T06:00:05.632Z,22.97
2018-03-11T06:02:33.311Z,22.20
2018-03-11T06:05:00.996Z,23.87
2018-03-11T06:07:28.772Z,22.23
2018-03-11T06:09:56.446Z,26.77
2018-03-11T06:12:24.123Z,25.60
2018-03-11T06:14:57.785Z,26.13
2018-03-11T06:17:25.432Z,28.97
2018-03-11T06:19:53.074Z,34.10
2018-03-11T06:22:20.769Z,36.07
2018-03-11T06:24:48.411Z,26.20
2018-03-11T06:27:16.155Z,23.77
2018-03-11T06:29:43.843Z,26.37
2018-03-11T06:32:11.721Z,26.73
2018-03-11T06:34:39.417Z,27.17
2018-03-11T06:37:07.098Z,28.07
2018-03-11T06:39:34.753Z,32.63
2018-03-11T06:42:02.413Z,29.27
2018-03-11T06:44:30.156Z,29.10
2018-03-11T06:46:57.816Z,26.87
2018-03-11T06:49:25.487Z,26.13
2018-03-11T06:51:53.253Z,25.70
2018-03-11T06:54:20.931Z,28.00
2018-03-11T06:56:48.611Z,24.83
2018-03-11T06:59:17.052Z,24.33
2018-03-11T07:01:44.721Z,23.90
2018-03-11T07:04:12.392Z,23.83
2018-03-11T07:06:42.102Z,24.77
2018-03-11T07:09:09.771Z,29.90
2018-03-11T07:11:37.433Z,26.50
2018-03-11T07:14:05.096Z,27.27
2018-03-11T07:16:32.759Z,27.57
2018-03-11T07:19:00.443Z,27.73
2018-03-11T07:21:28.116Z,25.00
2018-03-11T07:23:55.775Z,26.27
2018-03-11T07:26:24.220Z,24.87
2018-03-11T07:28:51.885Z,23.57
2018-03-11T07:31:19.461Z,21.77
2018-03-11T07:33:47.149Z,21.60
2018-03-11T07:36:17.738Z,23.73
2018-03-11T07:38:45.416Z,23.23
2018-03-11T07:41:13.087Z,22.67
2018-03-11T07:43:40.777Z,23.30
2018-03-11T07:46:08.458Z,22.90
2018-03-11T07:48:36.116Z,25.97
2018-03-11T07:51:03.775Z,22.43
2018-03-11T07:53:31.469Z,22.87
2018-03-11T07:55:59.132Z,22.47
2018-03-11T07:58:26.785Z,22.47
2018-03-11T08:00:54.487Z,22.23
2018-03-11T08:03:22.167Z,20.50
2018-03-11T08:05:55.817Z,21.60
2018-03-11T08:08:23.485Z,21.07
2018-03-11T08:10:51.155Z,21.53
2018-03-11T08:13:18.826Z,18.70
2018-03-11T08:15:46.482Z,20.80
2018-03-11T08:18:14.300Z,20.53
2018-03-11T08:20:42.783Z,19.37
2018-03-11T08:23:10.439Z,19.33
2018-03-11T08:25:40.519Z,19.70
2018-03-11T08:28:08.132Z,19.80
2018-03-11T08:30:36.578Z,20.37
2018-03-11T08:33:04.280Z,20.67
2018-03-11T08:35:36.803Z,20.47
2018-03-11T08:38:04.515Z,20.80
2018-03-11T08:40:32.206Z,20.13
2018-03-11T08:42:59.882Z,19.23
2018-03-11T08:45:27.529Z,21.90
2018-03-11T08:47:55.139Z,20.00
2018-03-11T08:50:22.808Z,20.40
2018-03-11T08:52:50.495Z,19.50
2018-03-11T08:55:18.126Z,19.00
2018-03-11T08:57:45.709Z,18.37
2018-03-11T09:00:13.294Z,19.30
2018-03-11T09:02:40.885Z,18.60
2018-03-11T09:05:08.638Z,19.70
2018-03-11T09:07:36.290Z,18.63
2018-03-11T09:10:03.904Z,18.80
2018-03-11T09:12:31.579Z,18.57
2018-03-11T09:14:59.234Z,18.50
2018-03-11T09:17:26.876Z,20.00
2018-03-11T09:19:55.226Z,19.70
2018-03-11T09:22:22.940Z,18.60
2018-03-11T09:24:50.606Z,20.33
2018-03-11T09:27:18.301Z,19.90
2018-03-11T09:29:45.982Z,22.53
2018-03-11T09:32:13.629Z,20.57
2018-03-11T09:34:41.551Z,20.53
2018-03-11T09:37:09.227Z,20.13
2018-03-11T09:39:36.901Z,20.30
2018-03-11T09:42:04.581Z,20.40
2018-03-11T09:44:32.291Z,20.47
2018-03-11T09:46:59.959Z,21.37
2018-03-11T09:49:27.630Z,22.63
2018-03-11T09:51:55.294Z,20.70
2018-03-11T09:54:22.980Z,20.57
2018-03-11T09:56:50.854Z,20.93
2018-03-11T09:59:18.527Z,21.30
2018-03-11T10:01:47.023Z,20.47
2018-03-11T10:04:14.886Z,21.90
2018-03-11T10:06:42.527Z,21.20
2018-03-11T10:09:11.007Z,19.40
2018-03-11T10:11:38.792Z,20.63
2018-03-11T10:14:07.335Z,21.03
2018-03-11T10:16:35.054Z,20.50
2018-03-11T10:19:02.722Z,20.03
2018-03-11T10:21:30.401Z,20.03
2018-03-11T10:23:58.109Z,19.40
2018-03-11T10:26:25.918Z,19.87
2018-03-11T10:28:53.631Z,19.20
2018-03-11T10:31:21.312Z,19.37
2018-03-11T10:33:49.765Z,18.40
2018-03-11T10:36:17.433Z,19.10
2018-03-11T10:38:45.092Z,18.60
2018-03-11T10:41:13.241Z,17.13
2018-03-11T10:43:40.901Z,18.20
2018-03-11T10:46:08.612Z,19.07
2018-03-11T10:48:36.290Z,17.20
2018-03-11T10:51:04.741Z,16.97
2018-03-11T10:53:32.415Z,15.03
2018-03-11T10:56:00.197Z,15.60
2018-03-11T10:58:28.643Z,15.00
2018-03-11T11:00:56.351Z,14.50
2018-03-11T11:03:28.745Z,14.40
2018-03-11T11:05:59.560Z,13.77
2018-03-11T11:08:28.056Z,13.63
2018-03-11T11:10:56.730Z,14.23
2018-03-11T11:13:24.397Z,14.33
2018-03-11T11:16:17.993Z,14.47
2018-03-11T11:18:45.664Z,14.93
2018-03-11T11:21:13.339Z,15.83
2018-03-11T11:23:41.033Z,15.30
2018-03-11T11:26:08.724Z,15.00
2018-03-11T11:28:37.224Z,16.20
2018-03-11T11:31:04.965Z,14.53
2018-03-11T11:33:38.222Z,16.03
2018-03-11T11:36:05.950Z,15.87
2018-03-11T11:38:36.982Z,15.27
2018-03-11T11:41:04.767Z,15.20
2018-03-11T11:43:32.502Z,15.07
2018-03-11T11:46:00.275Z,14.30
2018-03-11T11:48:30.010Z,15.00
2018-03-11T11:50:58.356Z,12.47
2018-03-11T11:53:26.720Z,13.97
2018-03-11T11:55:54.990Z,13.00
2018-03-11T11:58:22.693Z,12.70
2018-03-11T12:00:50.455Z,13.03
2018-03-11T12:03:19.111Z,12.67
2018-03-11T12:05:51.639Z,12.10
2018-03-11T12:08:19.402Z,11.43
2018-03-11T12:10:46.996Z,12.27
2018-03-11T12:13:14.578Z,11.47
2018-03-11T12:15:42.161Z,11.83
2018-03-11T12:18:09.812Z,11.20
2018-03-11T12:20:39.551Z,11.97
2018-03-11T12:23:07.285Z,10.97
2018-03-11T12:25:36.905Z,10.53
2018-03-11T12:28:05.985Z,10.00
2018-03-11T12:30:33.635Z,9.60
2018-03-11T12:33:01.290Z,9.90
2018-03-11T12:35:33.840Z,9.00
2018-03-11T12:38:01.522Z,9.30
2018-03-11T12:40:34.884Z,9.40
2018-03-11T12:43:03.904Z,8.90
2018-03-11T12:45:31.535Z,9.10
2018-03-11T12:47:59.175Z,9.43
2018-03-11T12:50:26.855Z,8.63
2018-03-11T12:52:55.302Z,9.87
2018-03-11T12:55:22.897Z,9.23
2018-03-11T12:57:50.552Z,9.87
2018-03-11T13:00:22.557Z,9.87
2018-03-11T13:02:55.329Z,9.67
2018-03-11T13:05:30.296Z,9.73
2018-03-11T13:07:57.897Z,9.60
2018-03-11T13:10:26.247Z,9.30
2018-03-11T13:12:53.902Z,8.83
2018-03-11T13:15:21.516Z,8.37
2018-03-11T13:17:49.183Z,8.23
2018-03-11T13:20:28.572Z,6.00
2018-03-11T13:22:56.239Z,2.70
2018-03-11T13:25:23.943Z,2.77
2018-03-11T13:28:04.026Z,2.20
2018-03-11T13:30:31.995Z,3.00
2018-03-11T13:33:12.436Z,2.30
2018-03-11T13:35:40.114Z,2.00
2018-03-11T13:38:19.488Z,2.33
2018-03-11T13:40:47.154Z,2.90
2018-03-11T13:43:14.837Z,1.90
2018-03-11T13:45:54.923Z,1.87
2018-03-11T13:48:23.531Z,1.80
2018-03-11T13:50:51.572Z,1.57
2018-03-11T13:53:30.956Z,1.63
2018-03-11T13:55:58.902Z,1.63
2018-03-11T13:58:41.874Z,1.40
2018-03-11T14:01:10.014Z,1.90
2018-03-11T14:03:37.623Z,1.50
2018-03-11T14:06:07.020Z,1.50
2018-03-11T14:08:35.449Z,1.73
2018-03-11T14:11:03.165Z,2.07
2018-03-11T14:13:31.599Z,1.53
2018-03-11T14:15:59.255Z,1.40
2018-03-11T14:18:26.844Z,2.07
2018-03-11T14:20:54.557Z,1.30
2018-03-11T14:23:22.168Z,1.73
2018-03-11T14:25:51.062Z,1.57
2018-03-11T14:28:18.765Z,2.13
2018-03-11T14:30:47.151Z,1.77
2018-03-11T14:33:14.772Z,1.80
2018-03-11T14:35:42.449Z,1.87
2018-03-11T14:38:10.096Z,1.93
2018-03-11T14:40:37.769Z,1.70
2018-03-11T14:43:05.424Z,2.03
2018-03-11T14:45:33.167Z,1.90
2018-03-11T14:48:00.780Z,2.23
2018-03-11T14:50:29.209Z,2.13
2018-03-11T14:52:56.837Z,6.30
2018-03-11T14:55:27.902Z,1.33
2018-03-11T14:57:55.597Z,1.77
2018-03-11T15:00:23.249Z,1.97
2018-03-11T15:02:50.913Z,2.03
2018-03-11T15:05:18.578Z,2.70
2018-03-11T15:07:46.228Z,2.80
2018-03-11T15:10:13.894Z,2.30
2018-03-11T15:12:41.564Z,1.90
2018-03-11T15:15:09.206Z,2.20
2018-03-11T15:17:36.897Z,1.93
2018-03-11T15:20:05.077Z,1.90
2018-03-11T15:22:32.679Z,2.67
2018-03-11T15:25:19.988Z,2.67
2018-03-11T15:27:47.840Z,1.80
2018-03-11T15:30:15.465Z,2.07
2018-03-11T15:32:43.180Z,1.80
2018-03-11T15:35:10.783Z,1.90
2018-03-11T15:37:38.462Z,2.47
2018-03-11T15:40:06.180Z,1.90
2018-03-11T15:42:34.761Z,2.03
2018-03-11T15:45:03.292Z,3.13
2018-03-11T15:47:32.373Z,2.33
2018-03-11T15:50:00.071Z,2.70
2018-03-11T15:52:27.844Z,3.83
2018-03-11T15:55:06.266Z,2.43
2018-03-11T15:57:36.804Z,2.50
2018-03-11T16:00:06.711Z,2.87
2018-03-11T16:02:34.369Z,3.00
2018-03-11T16:05:01.967Z,2.80
2018-03-11T16:07:30.332Z,3.13
2018-03-11T16:09:57.935Z,2.80
2018-03-11T16:12:25.563Z,2.30
2018-03-11T16:15:03.022Z,2.40
2018-03-11T16:17:30.740Z,2.77
2018-03-11T16:19:58.682Z,2.40
2018-03-11T16:22:26.395Z,3.17
2018-03-11T16:24:53.994Z,2.50
2018-03-11T16:27:21.761Z,2.50
2018-03-11T16:29:50.305Z,2.60
2018-03-11T16:32:18.938Z,3.10
2018-03-11T16:34:50.295Z,2.60
2018-03-11T16:37:18.186Z,2.80
2018-03-11T16:39:46.260Z,2.97
2018-03-11T16:42:28.357Z,3.30
2018-03-11T16:44:56.070Z,4.03
2018-03-11T16:47:23.729Z,5.17
2018-03-11T16:49:51.349Z,6.10
2018-03-11T16:52:19.229Z,4.60
2018-03-11T16:54:46.852Z,4.60
2018-03-11T16:57:15.547Z,4.20
2018-03-11T16:59:44.995Z,4.90
2018-03-11T17:02:12.778Z,4.03
2018-03-11T17:04:40.418Z,3.60
2018-03-11T17:07:09.080Z,3.80
2018-03-11T17:09:36.753Z,3.10
2018-03-11T17:12:04.479Z,3.20
2018-03-11T17:14:34.176Z,4.93
2018-03-11T17:17:03.240Z,3.07
2018-03-11T17:19:30.974Z,3.00
2018-03-11T17:21:58.900Z,3.40
2018-03-11T17:24:27.419Z,2.83
2018-03-11T17:26:55.911Z,5.10
2018-03-11T17:29:24.391Z,8.03
2018-03-11T17:31:52.113Z,5.10
2018-03-11T17:34:19.892Z,5.20
2018-03-11T17:36:47.634Z,4.80
2018-03-11T17:39:15.386Z,4.00
2018-03-11T17:41:43.135Z,6.00
2018-03-11T17:44:10.887Z,5.47
2018-03-11T17:46:43.079Z,6.23
2018-03-11T17:49:10.889Z,3.63
2018-03-11T17:51:38.597Z,4.10
2018-03-11T17:54:06.322Z,4.20
2018-03-11T17:56:34.102Z,4.83
2018-03-11T17:59:01.896Z,3.70
2018-03-11T18:01:29.735Z,6.37
2018-03-11T18:03:57.412Z,6.60
2018-03-11T18:06:25.967Z,3.53
2018-03-11T18:08:53.714Z,4.10
2018-03-11T18:11:21.490Z,4.40
2018-03-11T18:13:49.269Z,4.40
2018-03-11T18:16:20.614Z,5.27
2018-03-11T18:18:51.094Z,4.93
2018-03-11T18:21:18.888Z,5.20
2018-03-11T18:23:47.286Z,7.80
2018-03-11T18:26:15.032Z,7.90
2018-03-11T18:28:44.448Z,6.20
2018-03-11T18:31:12.114Z,9.50
2018-03-11T18:33:40.839Z,10.43
2018-03-11T18:36:08.583Z,9.03
2018-03-11T18:38:36.335Z,13.10
2018-03-11T18:41:04.125Z,14.90
2018-03-11T18:43:31.811Z,15.67
2018-03-11T18:49:05.390Z,14.90
2018-03-11T18:51:33.132Z,16.53
2018-03-11T18:54:00.892Z,15.43
2018-03-11T18:56:37.290Z,10.93
2018-03-11T18:59:05.001Z,10.43
2018-03-11T19:01:32.742Z,9.13
2018-03-11T19:04:01.140Z,11.07
2018-03-11T19:06:28.914Z,12.40
2018-03-11T19:08:57.377Z,13.53
2018-03-11T19:11:25.083Z,16.57
2018-03-11T19:13:52.864Z,16.17
2018-03-11T19:16:20.738Z,15.37
2018-03-11T19:18:48.476Z,13.27
2018-03-11T19:21:16.276Z,14.87
2018-03-11T19:23:43.996Z,17.90
2018-03-11T19:26:37.486Z,18.70
2018-03-11T19:29:05.240Z,16.10
2018-03-11T19:31:33.023Z,13.40
2018-03-11T19:34:00.742Z,11.73
2018-03-11T19:36:28.496Z,10.50
2018-03-11T19:38:57.221Z,9.30
2018-03-11T19:41:24.951Z,9.23
2018-03-11T19:43:52.667Z,8.60
2018-03-11T19:46:20.364Z,8.87
2018-03-11T19:48:48.096Z,8.23
2018-03-11T19:51:15.831Z,7.67
2018-03-11T19:53:43.627Z,7.57
2018-03-11T19:56:14.936Z,7.47
2018-03-11T19:58:42.690Z,8.57
2018-03-11T20:01:11.248Z,7.57
2018-03-11T20:03:38.981Z,7.80
2018-03-11T20:06:06.632Z,8.03
2018-03-11T20:08:34.415Z,8.30
2018-03-11T20:11:02.326Z,7.53
2018-03-11T20:13:30.087Z,8.10
2018-03-11T20:15:58.488Z,8.63
2018-03-11T20:18:26.214Z,8.97
2018-03-11T20:20:53.974Z,8.27
2018-03-11T20:23:22.075Z,10.03
2018-03-11T20:25:51.955Z,8.40
2018-03-11T20:28:19.704Z,9.37
2018-03-11T20:30:47.519Z,10.67
2018-03-11T20:33:16.043Z,9.43
2018-03-11T20:35:43.757Z,11.17
2018-03-11T20:38:11.468Z,9.97
2018-03-11T20:40:39.118Z,11.10
2018-03-11T20:43:06.922Z,13.50
2018-03-11T20:45:34.743Z,16.37
2018-03-11T20:48:02.481Z,14.27
2018-03-11T20:50:30.409Z,18.70
2018-03-11T20:52:58.158Z,24.20
2018-03-11T20:55:37.964Z,33.70
2018-03-11T20:58:05.719Z,28.27
2018-03-11T21:00:33.481Z,24.10
2018-03-11T21:03:01.173Z,18.40
2018-03-11T21:05:29.658Z,16.53
2018-03-11T21:07:57.355Z,14.40
2018-03-11T21:10:25.105Z,11.80
2018-03-11T21:12:52.882Z,14.00
2018-03-11T21:15:20.650Z,13.93
2018-03-11T21:17:48.439Z,12.67
2018-03-11T21:20:16.188Z,10.50
2018-03-11T21:22:44.040Z,10.03
2018-03-11T21:25:17.664Z,11.13
2018-03-11T21:27:45.667Z,12.50
2018-03-11T21:30:13.443Z,12.50
2018-03-11T21:32:41.163Z,13.13
2018-03-11T21:35:09.068Z,12.13
2018-03-11T21:37:36.886Z,10.40
2018-03-11T21:40:04.648Z,11.17
2018-03-11T21:42:32.459Z,10.43
2018-03-11T21:45:09.897Z,10.13
2018-03-11T21:47:37.663Z,11.30
2018-03-11T21:50:05.416Z,13.70
2018-03-11T21:52:33.174Z,16.80
2018-03-11T21:55:00.957Z,17.87
2018-03-11T21:57:28.695Z,14.30
2018-03-11T21:59:56.658Z,14.50
2018-03-11T22:02:24.313Z,44.07
2018-03-11T22:04:51.955Z,49.80
2018-03-11T22:07:19.769Z,56.60
2018-03-11T22:09:47.375Z,33.47
2018-03-11T22:12:15.179Z,17.20
2018-03-11T22:14:42.829Z,16.70
2018-03-11T22:17:10.581Z,17.77
2018-03-11T22:19:38.319Z,19.10
2018-03-11T22:22:06.110Z,14.87
2018-03-11T22:24:33.744Z,53.33
2018-03-11T22:27:01.497Z,19.33
2018-03-11T22:29:29.260Z,18.43
2018-03-11T22:31:57.029Z,24.47
2018-03-11T22:34:24.774Z,21.30
2018-03-11T22:36:54.528Z,19.80
2018-03-11T22:39:22.476Z,13.50
2018-03-11T22:41:51.009Z,14.07
2018-03-11T22:44:18.748Z,13.83
2018-03-11T22:46:46.394Z,17.30
2018-03-11T22:49:14.091Z,17.97
2018-03-11T22:51:41.765Z,15.80
2018-03-11T22:54:09.427Z,16.40
2018-03-11T22:56:37.133Z,17.50
2018-03-11T22:59:05.677Z,19.27
2018-03-11T23:01:33.361Z,14.50
2018-03-11T23:04:01.084Z,18.73
2018-03-11T23:06:35.973Z,14.80
2018-03-11T23:09:04.533Z,16.33
2018-03-11T23:11:32.286Z,15.27
2018-03-11T23:14:00.103Z,16.17
2018-03-11T23:16:28.600Z,15.37
2018-03-11T23:19:08.087Z,15.37
2018-03-11T23:21:35.846Z,12.57
2018-03-11T23:24:03.634Z,13.10
2018-03-11T23:26:31.894Z,11.87
2018-03-11T23:28:59.555Z,12.73
2018-03-11T23:31:27.217Z,11.20
2018-03-11T23:33:54.990Z,14.37
2018-03-11T23:36:22.756Z,11.87
2018-03-11T23:38:50.511Z,12.47
2018-03-11T23:41:18.244Z,12.30
2018-03-11T23:43:45.980Z,13.07
2018-03-11T23:46:28.063Z,11.90
2018-03-11T23:48:55.827Z,10.87
2018-03-11T23:51:23.719Z,10.03
2018-03-11T23:53:51.435Z,9.63
2018-03-11T23:56:19.225Z,10.33
2018-03-11T23:58:47.085Z,10.10
